Time;durP1;ratioP1;P1;durP2;ratioP2;P2;SDS_P1;SDS_P2;PMS_P1;PMS_P2;Temp;Humidity;BMP_temperature;BMP_pressure;BME280_temperature;BME280_humidity;BME280_pressure;Samples;Min_cycle;Max_cycle;Signal;HPM_P1;HPM_P2
2023/10/18 00:00:57;;;;;;;10.27;7.93;;;5.40;99.90;;;;;;5055449;28;20438;-70
2023/10/18 00:03:29;;;;;;;12.47;8.57;;;5.40;99.90;;;;;;5055175;28;20434;-70
2023/10/18 00:05:57;;;;;;;8.83;7.93;;;5.40;99.90;;;;;;5054796;28;20418;-71
2023/10/18 00:08:28;;;;;;;9.93;7.67;;;5.30;99.90;;;;;;5053019;28;20447;-71
2023/10/18 00:11:00;;;;;;;9.17;8.23;;;5.40;99.90;;;;;;5054749;28;20464;-70
2023/10/18 00:13:30;;;;;;;9.97;8.60;;;5.40;99.90;;;;;;5053977;28;20425;-70
2023/10/18 00:16:03;;;;;;;11.00;8.67;;;5.40;99.90;;;;;;5053022;28;20438;-70
2023/10/18 00:18:32;;;;;;;9.00;8.10;;;5.30;99.90;;;;;;5054630;28;20470;-70
2023/10/18 00:21:01;;;;;;;8.57;7.77;;;5.30;99.90;;;;;;5054636;28;20442;-70
2023/10/18 00:23:32;;;;;;;9.20;8.13;;;5.30;99.90;;;;;;5054703;28;20458;-70
2023/10/18 00:26:05;;;;;;;8.30;7.50;;;5.20;99.90;;;;;;5054915;28;20469;-70
2023/10/18 00:28:34;;;;;;;8.93;8.03;;;5.20;99.90;;;;;;5054907;28;20434;-70
2023/10/18 00:31:11;;;;;;;10.83;8.77;;;5.20;99.90;;;;;;5052744;28;20817;-70
2023/10/18 00:33:40;;;;;;;10.20;7.80;;;5.20;99.90;;;;;;5052897;28;20434;-70
2023/10/18 00:36:11;;;;;;;8.70;7.80;;;5.10;99.90;;;;;;5052646;28;20462;-70
2023/10/18 00:38:40;;;;;;;10.60;7.90;;;5.10;99.90;;;;;;5054269;28;20458;-75
2023/10/18 00:41:14;;;;;;;9.50;7.97;;;5.10;99.90;;;;;;5053998;28;20883;-70
2023/10/18 00:43:44;;;;;;;9.63;8.50;;;5.10;99.90;;;;;;5054026;28;20433;-70
2023/10/18 00:46:13;;;;;;;8.77;7.90;;;5.10;99.90;;;;;;5052572;28;20511;-70
2023/10/18 00:48:44;;;;;;;8.33;7.53;;;5.10;99.90;;;;;;5053856;28;20488;-70
2023/10/18 00:51:16;;;;;;;9.70;8.70;;;5.00;99.90;;;;;;5054354;28;20421;-70
2023/10/18 00:53:46;;;;;;;10.17;7.60;;;5.00;99.90;;;;;;5053806;28;20533;-70
2023/10/18 00:56:15;;;;;;;9.53;8.43;;;5.00;99.90;;;;;;5053974;28;20454;-70
2023/10/18 00:58:45;;;;;;;10.20;8.63;;;4.90;99.90;;;;;;5053669;28;20480;-70
2023/10/18 01:01:13;;;;;;;9.13;8.23;;;4.90;99.90;;;;;;5054654;28;20781;-70
2023/10/18 01:03:45;;;;;;;10.47;8.47;;;4.90;99.90;;;;;;5053560;28;20434;-70
2023/10/18 01:06:21;;;;;;;9.00;8.00;;;4.90;99.90;;;;;;5052424;28;20466;-70
2023/10/18 01:08:52;;;;;;;9.07;8.17;;;4.90;99.90;;;;;;5053726;28;20446;-70
2023/10/18 01:11:23;;;;;;;9.23;8.27;;;4.90;99.90;;;;;;5053641;28;20907;-70
2023/10/18 01:13:55;;;;;;;8.77;7.83;;;4.90;99.90;;;;;;5052225;28;20452;-70
2023/10/18 01:16:23;;;;;;;9.10;8.10;;;4.90;99.90;;;;;;5052461;28;20466;-70
2023/10/18 01:18:54;;;;;;;10.30;8.47;;;4.80;99.90;;;;;;5052695;28;20527;-70
2023/10/18 01:21:24;;;;;;;9.53;8.57;;;4.80;99.90;;;;;;5054157;28;20422;-70
2023/10/18 01:23:55;;;;;;;12.60;8.30;;;4.80;99.90;;;;;;5052495;28;20459;-70
2023/10/18 01:26:25;;;;;;;9.20;8.30;;;4.80;99.90;;;;;;5057527;28;20507;-70
2023/10/18 01:28:54;;;;;;;8.50;7.60;;;4.80;99.90;;;;;;5057898;28;20414;-70
2023/10/18 01:31:24;;;;;;;8.50;7.70;;;4.70;99.90;;;;;;5057710;28;20457;-70
2023/10/18 01:33:53;;;;;;;10.10;8.53;;;4.70;99.90;;;;;;5057727;28;20447;-70
2023/10/18 01:36:30;;;;;;;10.20;9.10;;;4.70;99.90;;;;;;5057483;28;20496;-70
2023/10/18 01:38:59;;;;;;;9.80;8.20;;;4.70;99.90;;;;;;5057895;28;20459;-70
2023/10/18 01:41:29;;;;;;;9.83;8.83;;;4.70;99.90;;;;;;5057536;28;20484;-70
2023/10/18 01:44:06;;;;;;;9.73;8.10;;;4.60;99.90;;;;;;5056308;28;20943;-70
2023/10/18 01:46:34;;;;;;;11.00;9.00;;;4.60;99.90;;;;;;5056559;28;20912;-70
2023/10/18 01:49:04;;;;;;;9.00;8.10;;;4.60;99.90;;;;;;5056146;28;20507;-70
2023/10/18 01:51:34;;;;;;;8.73;7.70;;;4.60;99.90;;;;;;5057737;28;20418;-70
2023/10/18 01:54:05;;;;;;;9.70;8.60;;;4.60;99.90;;;;;;5056045;28;20505;-70
2023/10/18 01:56:34;;;;;;;8.93;8.03;;;4.60;99.90;;;;;;5056147;28;20470;-70
2023/10/18 01:59:07;;;;;;;9.00;8.07;;;4.60;99.90;;;;;;5055817;28;20466;-70
2023/10/18 02:01:36;;;;;;;8.43;7.50;;;4.60;99.90;;;;;;5055764;28;20434;-70
2023/10/18 02:04:11;;;;;;;9.57;7.60;;;4.50;99.90;;;;;;5056721;28;20448;-70
2023/10/18 02:06:40;;;;;;;9.33;7.47;;;4.50;99.90;;;;;;5056836;28;20544;-70
2023/10/18 02:09:10;;;;;;;8.77;7.93;;;4.50;99.90;;;;;;5055213;28;20454;-70
2023/10/18 02:11:39;;;;;;;8.50;7.23;;;4.50;99.90;;;;;;5055487;28;20445;-70
2023/10/18 02:14:08;;;;;;;8.53;7.73;;;4.40;99.90;;;;;;5055356;28;20524;-71
2023/10/18 02:16:36;;;;;;;8.50;7.57;;;4.40;99.90;;;;;;5055824;28;20473;-70
2023/10/18 02:19:06;;;;;;;7.53;6.70;;;4.40;99.90;;;;;;5057124;28;20473;-70
2023/10/18 02:21:35;;;;;;;9.37;7.20;;;4.40;99.90;;;;;;5055828;28;20867;-70
2023/10/18 02:24:04;;;;;;;6.93;6.23;;;4.40;99.90;;;;;;5055713;28;20456;-70
2023/10/18 02:26:32;;;;;;;9.03;6.87;;;4.40;99.90;;;;;;5056617;28;20484;-70
2023/10/18 02:29:11;;;;;;;8.30;5.97;;;4.40;99.90;;;;;;5056715;28;20434;-70
2023/10/18 02:31:40;;;;;;;5.77;5.27;;;4.50;99.90;;;;;;5055344;28;20457;-70
2023/10/18 02:34:09;;;;;;;6.83;5.90;;;4.40;99.90;;;;;;5055357;28;20480;-70
2023/10/18 02:36:58;;;;;;;8.47;5.90;;;4.50;99.90;;;;;;5054534;28;20529;-70
2023/10/18 02:39:27;;;;;;;6.87;5.73;;;4.50;99.90;;;;;;5055042;28;20474;-70
2023/10/18 02:41:57;;;;;;;6.40;5.80;;;4.50;99.90;;;;;;5056864;28;20422;-70
2023/10/18 02:44:29;;;;;;;5.30;4.80;;;4.50;99.90;;;;;;5056579;28;20464;-70
2023/10/18 02:47:10;;;;;;;7.03;5.50;;;4.50;99.90;;;;;;5056750;28;20465;-70
2023/10/18 02:49:38;;;;;;;6.10;5.47;;;4.40;99.90;;;;;;5056836;28;20430;-70
2023/10/18 02:52:09;;;;;;;6.57;5.70;;;4.50;99.90;;;;;;5054745;28;20454;-70
2023/10/18 02:54:39;;;;;;;6.40;5.80;;;4.50;99.90;;;;;;5054844;28;20865;-70
2023/10/18 02:57:09;;;;;;;6.30;5.50;;;4.40;99.90;;;;;;5054755;28;20458;-70
2023/10/18 02:59:40;;;;;;;6.60;5.83;;;4.40;99.90;;;;;;5056361;28;20533;-70
2023/10/18 03:02:13;;;;;;;5.80;5.20;;;4.40;99.90;;;;;;5056477;28;20418;-70
2023/10/18 03:04:42;;;;;;;6.77;6.07;;;4.40;99.90;;;;;;5055040;28;20452;-70
2023/10/18 03:07:13;;;;;;;6.17;5.03;;;4.40;99.90;;;;;;5055999;28;20557;-70
2023/10/18 03:09:41;;;;;;;7.33;5.53;;;4.40;99.90;;;;;;5055859;28;20939;-69
2023/10/18 03:12:14;;;;;;;6.27;5.67;;;4.40;99.90;;;;;;5056005;28;20981;-70
2023/10/18 03:14:54;;;;;;;7.67;6.57;;;4.40;99.90;;;;;;5054427;28;20508;-70
2023/10/18 03:17:24;;;;;;;6.20;5.60;;;4.40;99.90;;;;;;5054389;28;20462;-70
2023/10/18 03:19:55;;;;;;;7.77;6.20;;;4.40;99.90;;;;;;5055627;28;20466;-70
2023/10/18 03:22:26;;;;;;;9.00;7.30;;;4.40;99.90;;;;;;5054519;28;20445;-70
2023/10/18 03:24:55;;;;;;;8.93;7.63;;;4.40;99.90;;;;;;5056024;28;20503;-70
2023/10/18 03:27:25;;;;;;;9.90;7.87;;;4.40;99.90;;;;;;5054126;28;20548;-70
2023/10/18 03:29:58;;;;;;;9.47;7.30;;;4.30;99.90;;;;;;5055457;28;20832;-70
2023/10/18 03:32:26;;;;;;;7.37;6.67;;;4.30;99.90;;;;;;5054115;28;20945;-70
2023/10/18 03:34:56;;;;;;;9.20;6.33;;;4.30;99.90;;;;;;5055380;28;20974;-70
2023/10/18 03:37:25;;;;;;;8.07;7.23;;;4.30;99.90;;;;;;5055502;28;20462;-70
2023/10/18 03:39:54;;;;;;;6.33;5.73;;;4.30;99.90;;;;;;5054245;28;20465;-70
2023/10/18 03:42:31;;;;;;;7.13;6.53;;;4.30;99.90;;;;;;5055201;28;20524;-70
2023/10/18 03:45:09;;;;;;;7.90;6.60;;;4.30;99.90;;;;;;5054817;28;20461;-70
2023/10/18 03:47:39;;;;;;;7.43;6.73;;;4.20;99.90;;;;;;5054907;28;20457;-70
2023/10/18 03:50:13;;;;;;;9.90;8.20;;;4.20;99.90;;;;;;5053338;28;20508;-70
2023/10/18 03:52:42;;;;;;;6.70;5.70;;;4.20;99.90;;;;;;5054208;28;20790;-70
2023/10/18 03:55:17;;;;;;;9.00;7.30;;;4.20;99.90;;;;;;5053676;28;20464;-70
2023/10/18 03:57:45;;;;;;;7.50;6.67;;;4.20;99.90;;;;;;5055075;28;20548;-70
2023/10/18 04:00:37;;;;;;;7.93;6.50;;;4.20;99.90;;;;;;5053404;28;20890;-70
2023/10/18 04:03:10;;;;;;;7.43;6.37;;;4.20;99.90;;;;;;5054986;28;20419;-70
2023/10/18 04:05:43;;;;;;;7.43;6.70;;;4.20;99.90;;;;;;5055335;28;20426;-70
2023/10/18 04:08:14;;;;;;;8.60;7.80;;;4.20;99.90;;;;;;5053069;28;20572;-70
2023/10/18 04:10:43;;;;;;;11.87;8.03;;;4.20;99.90;;;;;;5054894;28;20946;-70
2023/10/18 04:13:14;;;;;;;10.70;8.90;;;4.20;99.90;;;;;;5054937;28;20440;-70
2023/10/18 04:15:46;;;;;;;10.27;9.17;;;4.20;99.90;;;;;;5053554;28;20449;-70
2023/10/18 04:18:23;;;;;;;11.20;10.00;;;4.20;99.90;;;;;;5053360;28;20434;-70
2023/10/18 04:20:53;;;;;;;10.60;8.80;;;4.20;99.90;;;;;;5054716;28;20938;-70
2023/10/18 04:23:25;;;;;;;11.37;9.50;;;4.10;99.90;;;;;;5054272;28;20434;-70
2023/10/18 04:26:01;;;;;;;11.57;9.10;;;4.10;99.90;;;;;;5053183;28;20478;-70
2023/10/18 04:28:31;;;;;;;9.30;8.23;;;4.10;99.90;;;;;;5053055;28;20430;-70
2023/10/18 04:31:00;;;;;;;9.13;8.23;;;4.10;99.90;;;;;;5052958;28;20448;-70
2023/10/18 04:33:34;;;;;;;9.47;8.47;;;4.10;99.90;;;;;;5054412;28;20422;-70
2023/10/18 04:36:11;;;;;;;9.37;8.47;;;4.10;99.90;;;;;;5054501;28;20932;-70
2023/10/18 04:38:42;;;;;;;8.63;7.80;;;4.10;99.90;;;;;;5054766;28;20887;-70
2023/10/18 04:41:23;;;;;;;8.20;7.40;;;4.10;99.90;;;;;;5054564;28;20465;-70
2023/10/18 04:43:53;;;;;;;8.87;7.97;;;4.10;99.90;;;;;;5053991;28;20450;-70
2023/10/18 04:46:26;;;;;;;9.03;7.93;;;4.10;99.90;;;;;;5054215;28;20449;-70
2023/10/18 04:49:16;;;;;;;8.40;7.50;;;4.10;99.90;;;;;;5054409;28;20425;-70
2023/10/18 04:51:44;;;;;;;9.03;8.07;;;4.10;99.90;;;;;;5054139;28;20794;-71
2023/10/18 04:54:16;;;;;;;11.13;8.57;;;4.20;99.90;;;;;;5053868;28;20521;-70
2023/10/18 04:56:46;;;;;;;13.90;9.57;;;4.10;99.90;;;;;;5053784;28;20958;-70
2023/10/18 04:59:29;;;;;;;10.97;8.97;;;4.20;99.90;;;;;;5053308;28;20442;-70
2023/10/18 05:01:58;;;;;;;11.20;8.77;;;4.20;99.90;;;;;;5053953;28;20458;-70
2023/10/18 05:04:32;;;;;;;8.97;8.03;;;4.20;99.90;;;;;;5053860;28;20528;-70
2023/10/18 05:07:04;;;;;;;11.77;9.57;;;4.20;99.90;;;;;;5053633;28;20512;-70
2023/10/18 05:09:34;;;;;;;9.67;8.67;;;4.20;99.90;;;;;;5053439;28;20799;-70
2023/10/18 05:12:07;;;;;;;10.73;8.57;;;4.20;99.90;;;;;;5053840;28;20446;-71
2023/10/18 05:14:43;;;;;;;12.20;9.13;;;4.20;99.90;;;;;;5053940;28;20430;-70
2023/10/18 05:17:21;;;;;;;11.03;9.80;;;4.20;99.90;;;;;;5053474;28;20489;-71
2023/10/18 05:19:51;;;;;;;15.20;11.17;;;4.20;99.90;;;;;;5053377;28;20807;-70
2023/10/18 05:22:23;;;;;;;11.23;10.10;;;4.20;99.90;;;;;;5052196;28;20450;-70
2023/10/18 05:24:57;;;;;;;12.73;9.33;;;4.20;99.90;;;;;;5053759;28;20496;-71
2023/10/18 05:27:26;;;;;;;13.10;10.40;;;4.20;99.90;;;;;;5053376;28;20457;-71
2023/10/18 05:29:57;;;;;;;11.00;9.03;;;4.20;99.90;;;;;;5052100;28;20512;-71
2023/10/18 05:32:38;;;;;;;10.73;8.97;;;4.20;99.90;;;;;;5054120;28;20450;-70
2023/10/18 05:35:21;;;;;;;9.50;8.43;;;4.20;99.90;;;;;;5053948;28;20465;-70
2023/10/18 05:37:58;;;;;;;11.13;9.03;;;4.20;99.90;;;;;;5053730;28;20884;-70
2023/10/18 05:40:49;;;;;;;10.17;9.17;;;4.20;99.90;;;;;;5053785;28;20454;-70
2023/10/18 05:43:22;;;;;;;13.07;9.97;;;4.20;99.90;;;;;;5053184;28;20434;-70
2023/10/18 05:45:56;;;;;;;11.80;9.50;;;4.20;99.90;;;;;;5053269;28;20476;-71
2023/10/18 05:48:26;;;;;;;10.47;9.37;;;4.20;99.90;;;;;;5051853;28;20473;-71
2023/10/18 05:51:04;;;;;;;11.57;9.60;;;4.30;99.90;;;;;;5053473;28;20442;-71
2023/10/18 05:53:33;;;;;;;11.67;10.13;;;4.20;99.90;;;;;;5053175;28;20422;-71
2023/10/18 05:56:01;;;;;;;12.50;11.30;;;4.30;99.90;;;;;;5052696;28;20438;-70
2023/10/18 05:58:32;;;;;;;12.27;10.97;;;4.30;99.90;;;;;;5052898;28;20500;-71
2023/10/18 06:01:02;;;;;;;11.63;10.43;;;4.30;99.90;;;;;;5052694;28;20963;-71
2023/10/18 06:03:39;;;;;;;11.40;9.43;;;4.30;99.90;;;;;;5053234;28;20410;-71
2023/10/18 06:06:08;;;;;;;11.47;10.27;;;4.30;99.90;;;;;;5052977;28;20453;-71
2023/10/18 06:08:37;;;;;;;12.33;9.50;;;4.30;99.90;;;;;;5051614;28;20888;-71
2023/10/18 06:11:08;;;;;;;13.20;10.57;;;4.30;99.90;;;;;;5051676;28;20500;-71
2023/10/18 06:13:36;;;;;;;10.60;9.50;;;4.30;99.90;;;;;;5057166;28;20454;-71
2023/10/18 06:16:19;;;;;;;11.93;10.73;;;4.30;99.90;;;;;;5056734;28;20445;-70
2023/10/18 06:18:49;;;;;;;10.80;9.00;;;4.30;99.90;;;;;;5056796;28;20422;-70
2023/10/18 06:21:19;;;;;;;13.50;10.10;;;4.40;99.90;;;;;;5057050;28;20461;-70
2023/10/18 06:23:55;;;;;;;12.70;10.03;;;4.40;99.90;;;;;;5056577;28;20441;-71
2023/10/18 06:26:33;;;;;;;12.03;9.77;;;4.40;99.90;;;;;;5056560;28;20457;-71
2023/10/18 06:29:02;;;;;;;12.30;10.90;;;4.40;99.90;;;;;;5056926;28;20453;-71
2023/10/18 06:31:30;;;;;;;14.33;11.40;;;4.40;99.90;;;;;;5056331;28;20438;-71
2023/10/18 06:34:02;;;;;;;12.27;11.03;;;4.50;99.90;;;;;;5056368;28;20438;-71
2023/10/18 06:36:32;;;;;;;11.13;9.70;;;4.50;99.90;;;;;;5056739;28;20492;-70
2023/10/18 06:39:00;;;;;;;12.00;9.87;;;4.50;99.90;;;;;;5056774;28;20488;-70
2023/10/18 06:41:30;;;;;;;11.77;10.40;;;4.50;99.90;;;;;;5056684;28;20500;-70
2023/10/18 06:43:59;;;;;;;12.90;11.40;;;4.50;99.90;;;;;;5056054;28;20438;-70
2023/10/18 06:46:27;;;;;;;12.07;10.87;;;4.50;99.90;;;;;;5056088;28;20460;-70
2023/10/18 06:48:58;;;;;;;12.60;11.27;;;4.60;99.90;;;;;;5055870;28;20491;-70
2023/10/18 06:51:40;;;;;;;12.03;10.50;;;4.60;99.90;;;;;;5054798;28;20889;-70
2023/10/18 06:54:13;;;;;;;14.90;11.07;;;4.60;99.90;;;;;;5056394;28;20414;-70
2023/10/18 06:56:45;;;;;;;15.30;12.07;;;4.60;99.90;;;;;;5056173;28;20507;-70
2023/10/18 06:59:14;;;;;;;12.87;11.40;;;4.60;99.90;;;;;;5055676;28;20429;-70
2023/10/18 07:01:54;;;;;;;14.73;11.50;;;4.70;99.90;;;;;;5055783;28;20497;-70
2023/10/18 07:04:28;;;;;;;16.43;11.20;;;4.70;99.90;;;;;;5056020;28;20422;-71
2023/10/18 07:06:58;;;;;;;15.90;11.47;;;4.70;99.90;;;;;;5054266;28;20462;-71
2023/10/18 07:09:26;;;;;;;13.33;11.93;;;4.70;99.90;;;;;;5054131;28;20454;-71
2023/10/18 07:12:03;;;;;;;18.17;12.30;;;4.80;99.90;;;;;;5054159;28;20966;-71
2023/10/18 07:14:31;;;;;;;17.10;11.70;;;4.80;99.90;;;;;;5055860;28;20433;-71
2023/10/18 07:17:03;;;;;;;16.50;11.63;;;4.80;99.90;;;;;;5055773;28;20544;-70
2023/10/18 07:19:33;;;;;;;17.73;11.83;;;4.80;99.90;;;;;;5055535;28;20422;-71
2023/10/18 07:22:06;;;;;;;16.23;12.07;;;4.90;99.90;;;;;;5055318;28;20454;-71
2023/10/18 07:24:36;;;;;;;12.77;11.47;;;4.90;99.90;;;;;;5053862;28;20465;-71
2023/10/18 07:27:08;;;;;;;18.93;12.07;;;4.90;99.90;;;;;;5055354;28;20461;-71
2023/10/18 07:29:37;;;;;;;16.27;12.77;;;5.00;99.90;;;;;;5055486;28;20444;-71
2023/10/18 07:32:12;;;;;;;14.90;13.27;;;5.00;99.90;;;;;;5055110;28;20801;-71
2023/10/18 07:34:42;;;;;;;16.57;12.10;;;5.10;99.90;;;;;;5055485;28;20414;-71
2023/10/18 07:37:19;;;;;;;14.87;13.23;;;5.10;99.90;;;;;;5053751;28;21013;-71
2023/10/18 07:39:56;;;;;;;14.37;12.83;;;5.10;99.90;;;;;;5055259;28;20427;-70
2023/10/18 07:42:26;;;;;;;17.77;12.83;;;5.20;99.90;;;;;;5055329;28;20458;-70
2023/10/18 07:45:03;;;;;;;15.70;12.93;;;5.20;99.90;;;;;;5053965;28;20453;-71
2023/10/18 07:47:32;;;;;;;14.57;12.90;;;5.30;99.90;;;;;;5055141;28;20461;-70
2023/10/18 07:50:01;;;;;;;15.00;12.70;;;5.40;99.90;;;;;;5054926;28;20471;-70
2023/10/18 07:52:30;;;;;;;15.80;13.57;;;5.40;99.90;;;;;;5053368;28;20450;-70
2023/10/18 07:54:58;;;;;;;16.20;14.20;;;5.50;99.90;;;;;;5055227;28;20531;-71
2023/10/18 07:57:33;;;;;;;16.40;14.70;;;5.50;99.90;;;;;;5054623;28;20463;-70
2023/10/18 08:02:44;;;;;;;16.70;14.20;;;5.60;99.90;;;;;;5054511;28;20573;-70
2023/10/18 08:05:12;;;;;;;16.20;14.40;;;5.70;99.90;;;;;;5054650;28;20430;-71
2023/10/18 08:07:48;;;;;;;17.83;15.97;;;5.80;99.90;;;;;;5053216;28;20482;-71
2023/10/18 08:10:19;;;;;;;17.10;15.40;;;5.90;99.90;;;;;;5055195;28;20422;-70
2023/10/18 08:13:01;;;;;;;17.37;15.67;;;5.90;99.90;;;;;;5055083;28;20775;-70
2023/10/18 08:15:34;;;;;;;19.30;16.80;;;6.00;99.90;;;;;;5053545;28;20530;-70
2023/10/18 08:18:14;;;;;;;19.87;17.83;;;6.10;99.90;;;;;;5054942;28;20925;-70
2023/10/18 08:20:56;;;;;;;17.50;14.93;;;6.10;99.90;;;;;;5054962;28;20423;-70
2023/10/18 08:23:38;;;;;;;18.17;16.37;;;6.20;99.90;;;;;;5054112;28;21071;-71
2023/10/18 08:26:06;;;;;;;20.37;18.27;;;6.30;99.90;;;;;;5054829;28;20498;-70
2023/10/18 08:28:46;;;;;;;18.47;16.67;;;6.30;99.90;;;;;;5054714;28;20438;-70
2023/10/18 08:31:16;;;;;;;18.53;16.83;;;6.40;99.90;;;;;;5054841;28;20423;-70
2023/10/18 08:33:45;;;;;;;19.10;17.40;;;6.50;99.90;;;;;;5054799;28;20423;-70
2023/10/18 08:36:18;;;;;;;17.80;16.00;;;6.50;99.90;;;;;;5054546;28;20454;-70
2023/10/18 08:38:48;;;;;;;18.07;16.13;;;6.60;99.90;;;;;;5054483;28;20431;-70
2023/10/18 08:41:16;;;;;;;18.47;16.57;;;6.60;99.90;;;;;;5054357;28;20462;-70
2023/10/18 08:44:00;;;;;;;17.27;15.67;;;6.70;99.90;;;;;;5054139;28;20518;-70
2023/10/18 08:46:28;;;;;;;18.53;16.80;;;6.80;99.90;;;;;;5054579;28;20535;-70
2023/10/18 08:48:57;;;;;;;17.50;15.93;;;6.80;99.90;;;;;;5054520;28;20466;-70
2023/10/18 08:51:29;;;;;;;17.87;16.27;;;6.80;99.90;;;;;;5054290;28;20441;-70
2023/10/18 08:54:02;;;;;;;16.63;14.93;;;6.90;99.90;;;;;;5054759;28;20424;-70
2023/10/18 08:56:33;;;;;;;16.33;14.90;;;6.90;99.90;;;;;;5053061;28;20471;-70
2023/10/18 08:59:11;;;;;;;16.40;14.70;;;7.00;99.90;;;;;;5054623;28;20430;-70
2023/10/18 09:02:01;;;;;;;17.53;15.93;;;7.10;99.90;;;;;;5054917;28;20428;-70
2023/10/18 09:04:28;;;;;;;17.50;15.83;;;7.10;99.90;;;;;;5054235;28;20449;-70
2023/10/18 09:06:59;;;;;;;17.53;15.73;;;7.20;99.90;;;;;;5054199;28;20556;-70
2023/10/18 09:09:35;;;;;;;16.63;15.20;;;7.30;99.90;;;;;;5054652;28;20455;-69
2023/10/18 09:12:14;;;;;;;16.33;14.80;;;7.30;99.90;;;;;;5054334;28;21002;-70
2023/10/18 09:14:50;;;;;;;15.87;14.37;;;7.40;99.90;;;;;;5054897;28;20469;-70
2023/10/18 09:17:23;;;;;;;16.63;15.10;;;7.50;99.90;;;;;;5054438;28;20954;-70
2023/10/18 09:19:56;;;;;;;16.73;15.13;;;7.50;99.90;;;;;;5053175;28;20531;-70
2023/10/18 09:22:24;;;;;;;16.90;15.30;;;7.60;99.90;;;;;;5053065;28;20477;-70
2023/10/18 09:24:54;;;;;;;19.77;15.17;;;7.70;99.90;;;;;;5054200;28;20499;-70
2023/10/18 09:27:23;;;;;;;15.70;14.27;;;7.70;99.90;;;;;;5054442;28;20486;-71
2023/10/18 09:29:52;;;;;;;15.87;14.47;;;7.80;99.90;;;;;;5053946;28;20433;-71
2023/10/18 09:32:33;;;;;;;16.63;14.90;;;7.80;99.90;;;;;;5052322;28;20540;-71
2023/10/18 09:35:07;;;;;;;15.50;14.10;;;7.90;99.90;;;;;;5054154;28;20417;-70
2023/10/18 09:37:36;;;;;;;15.50;14.10;;;8.00;99.90;;;;;;5053521;28;20992;-70
2023/10/18 09:40:11;;;;;;;16.30;14.83;;;8.00;99.90;;;;;;5053651;28;20438;-70
2023/10/18 09:42:40;;;;;;;15.50;14.10;;;8.10;99.90;;;;;;5053364;28;20469;-70
2023/10/18 09:45:08;;;;;;;16.53;14.83;;;8.10;99.90;;;;;;5053615;28;20441;-71
2023/10/18 09:47:37;;;;;;;15.40;14.10;;;8.20;99.90;;;;;;5057305;28;20457;-70
2023/10/18 09:50:09;;;;;;;13.97;12.63;;;8.20;99.90;;;;;;5057450;28;20430;-70
2023/10/18 09:52:48;;;;;;;15.50;14.17;;;8.30;99.90;;;;;;5056035;28;20540;-70
2023/10/18 09:55:20;;;;;;;15.60;13.93;;;8.30;99.90;;;;;;5057570;28;20962;-70
2023/10/18 09:57:59;;;;;;;15.10;13.70;;;8.40;99.90;;;;;;5057202;28;20454;-70
2023/10/18 10:00:29;;;;;;;13.73;12.43;;;8.50;99.90;;;;;;5057815;28;20418;-70
2023/10/18 10:02:58;;;;;;;14.40;13.00;;;8.50;99.90;;;;;;5056143;28;21041;-70
2023/10/18 10:05:28;;;;;;;14.40;13.07;;;8.60;99.90;;;;;;5055958;28;20540;-70
2023/10/18 10:07:56;;;;;;;14.10;12.60;;;8.70;99.90;;;;;;5055972;28;20528;-70
2023/10/18 10:10:43;;;;;;;13.27;12.07;;;8.70;99.90;;;;;;5056890;28;20442;-70
2023/10/18 10:13:18;;;;;;;12.70;11.50;;;8.80;99.90;;;;;;5057416;28;20446;-70
2023/10/18 10:15:54;;;;;;;13.17;11.97;;;8.90;99.90;;;;;;5055989;28;20438;-70
2023/10/18 10:18:26;;;;;;;12.10;11.00;;;9.00;99.90;;;;;;5055725;28;20448;-70
2023/10/18 10:20:58;;;;;;;12.93;11.73;;;9.10;99.90;;;;;;5057289;28;20429;-70
2023/10/18 10:23:32;;;;;;;11.93;10.93;;;9.10;99.90;;;;;;5057046;28;20454;-70
2023/10/18 10:26:12;;;;;;;13.33;12.20;;;9.20;99.90;;;;;;5056933;28;20461;-70
2023/10/18 10:31:51;;;;;;;13.70;12.40;;;9.30;99.90;;;;;;5056898;28;20422;-70
2023/10/18 10:34:26;;;;;;;13.00;11.90;;;9.40;99.90;;;;;;5056595;28;20462;-70
2023/10/18 10:37:06;;;;;;;12.37;11.10;;;9.40;99.90;;;;;;5057117;28;20449;-70
2023/10/18 10:39:43;;;;;;;11.50;10.47;;;9.50;99.90;;;;;;5055453;28;20446;-70
2023/10/18 10:42:27;;;;;;;13.33;11.93;;;9.60;99.90;;;;;;5056673;28;20418;-70
2023/10/18 10:45:02;;;;;;;12.00;10.90;;;9.60;99.90;;;;;;5056620;28;20871;-70
2023/10/18 10:47:33;;;;;;;11.00;10.00;;;9.70;99.90;;;;;;5056424;28;20966;-70
2023/10/18 10:50:07;;;;;;;11.93;10.77;;;9.70;99.90;;;;;;5054919;28;20446;-70
2023/10/18 10:52:40;;;;;;;12.03;10.93;;;9.80;99.90;;;;;;5056646;28;20962;-70
2023/10/18 10:55:21;;;;;;;11.27;10.27;;;9.90;99.90;;;;;;5054925;28;20438;-70
2023/10/18 10:57:52;;;;;;;11.40;10.23;;;9.90;99.90;;;;;;5055896;28;20977;-70
2023/10/18 11:00:49;;;;;;;11.30;10.20;;;10.00;99.90;;;;;;5056579;28;20472;-70
2023/10/18 11:03:32;;;;;;;10.50;9.50;;;10.10;99.90;;;;;;5055132;28;20524;-70
2023/10/18 11:06:05;;;;;;;10.20;9.20;;;10.20;99.90;;;;;;5056591;28;20429;-70
2023/10/18 11:08:36;;;;;;;10.87;9.87;;;10.20;99.90;;;;;;5055932;28;20979;-70
2023/10/18 11:11:06;;;;;;;10.60;9.50;;;10.30;99.90;;;;;;5056068;28;20418;-71
2023/10/18 11:13:41;;;;;;;10.30;9.30;;;10.30;99.90;;;;;;5056320;28;20468;-71
2023/10/18 11:16:11;;;;;;;10.83;9.40;;;10.40;99.90;;;;;;5055901;28;20488;-70
2023/10/18 11:18:42;;;;;;;10.10;9.20;;;10.40;99.90;;;;;;5056199;28;20426;-70
2023/10/18 11:21:21;;;;;;;10.37;9.00;;;10.50;99.90;;;;;;5056358;28;20509;-71
2023/10/18 11:23:57;;;;;;;10.20;9.30;;;10.50;99.90;;;;;;5055985;28;20454;-70
2023/10/18 11:26:26;;;;;;;10.50;9.57;;;10.50;99.90;;;;;;5056012;28;20450;-71
2023/10/18 11:28:58;;;;;;;10.30;9.40;;;10.60;99.90;;;;;;5055987;28;20927;-70
2023/10/18 11:31:28;;;;;;;10.20;9.20;;;10.60;99.90;;;;;;5055909;28;20414;-71
2023/10/18 11:34:05;;;;;;;10.60;9.20;;;10.60;99.90;;;;;;5055555;28;20442;-70
2023/10/18 11:36:38;;;;;;;11.03;9.43;;;10.70;99.90;;;;;;5055865;28;20454;-71
2023/10/18 11:39:19;;;;;;;10.70;9.70;;;10.70;99.90;;;;;;5054423;28;20848;-70
2023/10/18 11:41:56;;;;;;;9.60;8.70;;;10.70;99.90;;;;;;5055473;28;20437;-71
2023/10/18 11:44:31;;;;;;;11.70;10.20;;;10.70;99.90;;;;;;5055211;28;20557;-71
2023/10/18 11:47:03;;;;;;;10.27;9.37;;;10.70;99.90;;;;;;5055005;28;20454;-71
2023/10/18 11:49:36;;;;;;;10.63;9.63;;;10.70;99.90;;;;;;5055380;28;20418;-71
2023/10/18 11:52:05;;;;;;;10.80;9.23;;;10.70;99.90;;;;;;5055052;28;20426;-70
2023/10/18 11:54:36;;;;;;;12.40;9.27;;;10.80;99.90;;;;;;5055213;28;20418;-71
2023/10/18 11:57:23;;;;;;;9.53;8.70;;;10.80;99.90;;;;;;5053403;28;20554;-71
2023/10/18 11:59:54;;;;;;;13.30;9.10;;;10.80;99.90;;;;;;5054881;28;20426;-70
2023/10/18 12:02:27;;;;;;;9.20;8.30;;;10.80;99.90;;;;;;5055111;28;20505;-71
2023/10/18 12:04:57;;;;;;;9.73;8.70;;;10.90;99.90;;;;;;5054974;28;20508;-71
2023/10/18 12:07:25;;;;;;;11.17;10.07;;;10.90;99.90;;;;;;5053604;28;20470;-71
2023/10/18 12:09:55;;;;;;;10.03;9.10;;;10.90;99.90;;;;;;5053866;28;20500;-70
2023/10/18 12:12:24;;;;;;;11.20;10.10;;;10.90;99.90;;;;;;5054510;28;20482;-71
2023/10/18 12:14:54;;;;;;;11.20;9.50;;;10.90;99.90;;;;;;5054557;28;20430;-70
2023/10/18 12:17:22;;;;;;;10.83;9.00;;;10.90;99.90;;;;;;5054809;28;20450;-70
2023/10/18 12:19:52;;;;;;;12.17;10.50;;;11.00;99.90;;;;;;5054433;28;20446;-70
2023/10/18 12:22:23;;;;;;;10.23;9.07;;;11.00;99.90;;;;;;5054402;28;20434;-70
2023/10/18 12:24:52;;;;;;;7.80;7.10;;;11.00;99.90;;;;;;5054435;28;20454;-70
2023/10/18 12:27:33;;;;;;;10.40;9.40;;;11.00;99.90;;;;;;5054254;28;20461;-70
2023/10/18 12:30:27;;;;;;;9.53;8.60;;;11.10;99.90;;;;;;5054107;28;20422;-71
2023/10/18 12:33:04;;;;;;;10.53;8.70;;;11.10;99.90;;;;;;5054331;28;20457;-70
2023/10/18 12:35:33;;;;;;;8.87;8.10;;;11.10;99.90;;;;;;5054416;28;20422;-70
2023/10/18 12:38:12;;;;;;;9.40;8.30;;;11.10;99.90;;;;;;5054168;28;20862;-71
2023/10/18 12:40:52;;;;;;;8.87;7.97;;;11.10;99.90;;;;;;5053871;28;20503;-71
2023/10/18 12:43:21;;;;;;;8.27;7.43;;;11.20;99.90;;;;;;5053699;28;20473;-71
2023/10/18 12:45:51;;;;;;;8.50;7.80;;;11.20;99.90;;;;;;5053562;28;20457;-71
2023/10/18 12:48:23;;;;;;;7.80;7.20;;;11.20;99.90;;;;;;5053931;28;20440;-71
2023/10/18 12:50:52;;;;;;;8.40;7.53;;;11.20;99.90;;;;;;5052273;28;20446;-70
2023/10/18 12:56:19;;;;;;;5.93;5.40;;;11.30;99.90;;;;;;5053526;28;20464;-71
2023/10/18 12:58:54;;;;;;;7.47;6.67;;;11.30;99.90;;;;;;5053760;28;20448;-71
2023/10/18 13:01:31;;;;;;;8.00;7.20;;;11.30;99.90;;;;;;5053733;28;20849;-71
2023/10/18 13:03:59;;;;;;;9.00;7.70;;;11.40;99.90;;;;;;5054038;28;20418;-71
2023/10/18 13:06:34;;;;;;;8.67;7.87;;;11.40;99.90;;;;;;5053164;28;20512;-71
2023/10/18 13:09:21;;;;;;;7.77;6.97;;;11.40;99.90;;;;;;5052045;28;20461;-71
2023/10/18 13:12:00;;;;;;;8.90;8.00;;;11.40;99.90;;;;;;5053409;28;20418;-71
2023/10/18 13:14:31;;;;;;;7.67;6.97;;;11.50;99.90;;;;;;5053656;28;20426;-71
2023/10/18 13:17:05;;;;;;;8.27;7.57;;;11.50;99.90;;;;;;5053402;28;20464;-71
2023/10/18 13:19:34;;;;;;;9.37;7.80;;;11.50;99.90;;;;;;5053231;28;20422;-71
2023/10/18 13:22:16;;;;;;;7.90;7.20;;;11.50;99.90;;;;;;5051753;28;20855;-71